Arcata/Eureka (ACV/KACV)

Map

Destinations

Information

Location
Arcata/Eureka, CA
Local Time
15:38 / 3:38 pm
GMT Time
23:38 / 11:38 pm
Gates
6
No FAA reported delays
METAR KACV 182304Z AUTO 16008KT 7SM -RA FEW008 BKN050 OVC070 11/09 A2997 RMK AO2 P0000 T01110094
TAF KACV 182131Z 1822/1918 27009KT 1SM SHRA VCTS SCT012 SCT025CB OVC050 TEMPO 1822/1901 3SM -TSRAGS BKN015 OVC025CB FM190100 23012KT 6SM -SHRA BR SCT015 OVC030 FM190300 17010KT 4SM -SHRA SCT025 BKN035 OVC050